Time;durP1;ratioP1;P1;durP2;ratioP2;P2;SDS_P1;SDS_P2;PMS_P1;PMS_P2;Temp;Humidity;BMP_temperature;BMP_pressure;BME280_temperature;BME280_humidity;BME280_pressure;Samples;Min_cycle;Max_cycle;Signal;HPM_P1;HPM_P2
2022/08/12 00:44:48;;;;;;;4.55;2.90;;;;;;;22.14;47.88;100738.94;5031596;28;20187;-87
2022/08/12 00:47:15;;;;;;;5.78;3.40;;;;;;;22.12;48.28;100760.28;5002456;28;20420;-88
2022/08/12 00:49:50;;;;;;;4.60;3.20;;;;;;;22.11;48.27;100755.84;5032895;28;20121;-88
2022/08/12 00:52:18;;;;;;;4.68;3.30;;;;;;;21.98;48.43;100745.09;5023705;28;20049;-88
2022/08/12 00:54:58;;;;;;;3.38;2.88;;;;;;;22.04;48.57;100757.88;5031731;28;20021;-88
2022/08/12 00:57:27;;;;;;;4.38;3.03;;;;;;;22.12;48.52;100763.00;5048261;28;20029;-88
2022/08/12 00:59:59;;;;;;;4.60;3.15;;;;;;;21.92;48.81;100746.88;5032059;28;20103;-89
2022/08/12 01:02:29;;;;;;;4.35;3.03;;;;;;;22.05;48.92;100761.44;5032758;28;20031;-89
2022/08/12 01:13:37;;;;;;;5.25;3.20;;;;;;;21.99;48.68;100762.38;5035728;28;20045;-88
2022/08/12 01:16:06;;;;;;;6.35;3.38;;;;;;;21.83;49.06;100752.94;5031532;28;20037;-87
2022/08/12 01:18:33;;;;;;;6.30;3.25;;;;;;;21.80;49.03;100753.41;5038190;28;20095;-87
2022/08/12 01:21:15;;;;;;;3.97;3.00;;;;;;;21.75;49.45;100755.97;5005092;28;20521;-88
2022/08/12 01:23:49;;;;;;;4.53;3.30;;;;;;;21.71;49.64;100745.50;5042253;28;20040;-88
2022/08/12 01:26:22;;;;;;;4.32;3.28;;;;;;;21.70;49.57;100743.84;5032702;28;20045;-88
2022/08/12 01:28:54;;;;;;;3.95;3.10;;;;;;;21.82;49.28;100757.56;5040255;28;20028;-89
2022/08/12 01:31:20;;;;;;;4.95;3.20;;;;;;;21.67;49.93;100740.72;5040913;28;20029;-89
2022/08/12 01:33:56;;;;;;;3.88;3.20;;;;;;;21.69;50.01;100753.13;5015949;28;20098;-88
2022/08/12 01:36:25;;;;;;;;;;;;;;;21.68;49.82;100753.34;5034052;28;20029;-88
2022/08/12 01:38:52;;;;;;;7.45;3.47;;;;;;;21.52;50.04;100738.44;5042087;28;20359;-89
2022/08/12 01:41:18;;;;;;;5.70;3.05;;;;;;;21.49;50.64;100736.13;5044136;28;20033;-88
2022/08/12 01:43:43;;;;;;;5.15;3.22;;;;;;;21.41;49.90;100722.78;5025757;28;20037;-87
2022/08/12 01:46:28;;;;;;;4.10;3.28;;;;;;;21.52;50.25;100738.44;5039233;28;20487;-87
2022/08/12 01:49:18;;;;;;;3.97;3.40;;;;;;;21.51;50.42;100747.69;5019778;28;20043;-89
2022/08/12 01:51:45;;;;;;;3.92;3.25;;;;;;;21.37;50.31;100716.09;5029900;28;20687;-88
2022/08/12 01:54:17;;;;;;;5.85;3.50;;;;;;;21.59;49.89;100749.28;5044808;28;20033;-89
2022/08/12 01:56:50;;;;;;;4.60;2.90;;;;;;;21.55;50.31;100739.88;5026253;28;20518;-88
2022/08/12 02:02:52;;;;;;;6.80;3.20;;;;;;;21.27;50.83;100727.56;5010308;28;20048;-88
2022/08/12 02:11:35;;;;;;;8.30;3.42;;;;;;;21.35;50.79;100737.34;5004978;28;20084;-90
2022/08/12 02:14:05;;;;;;;5.53;3.40;;;;;;;21.22;51.31;100744.66;4996455;28;20041;-87
2022/08/12 02:16:33;;;;;;;5.65;3.28;;;;;;;21.28;50.96;100754.69;5020026;28;20033;-88
2022/08/12 02:22:17;;;;;;;5.43;3.50;;;;;;;21.16;51.62;100748.31;5018581;28;20120;-91
2022/08/12 02:24:45;;;;;;;5.72;3.17;;;;;;;21.15;51.43;100745.81;5024239;28;20116;-90
2022/08/12 02:27:12;;;;;;;5.07;3.47;;;;;;;21.07;51.49;100741.47;5004889;28;20025;-88
2022/08/12 02:29:40;;;;;;;4.60;3.22;;;;;;;20.99;51.69;100737.16;5007308;28;20042;-89
2022/08/12 02:32:07;;;;;;;7.03;3.40;;;;;;;20.99;51.81;100737.16;5012217;28;20120;-86
2022/08/12 02:34:35;;;;;;;5.35;3.47;;;;;;;20.89;52.18;100745.06;5011540;28;20054;-87
2022/08/12 02:37:10;;;;;;;3.63;3.25;;;;;;;20.86;51.99;100727.22;4987172;28;20588;-88
2022/08/12 02:39:39;;;;;;;6.35;3.33;;;;;;;20.79;52.20;100753.78;4996461;28;20520;-87
2022/08/12 02:42:08;;;;;;;6.53;3.58;;;;;;;20.85;51.90;100738.38;5012116;28;20065;-88
2022/08/12 02:44:37;;;;;;;5.80;3.10;;;;;;;20.75;52.14;100725.25;5026874;28;20458;-88
2022/08/12 02:47:05;;;;;;;5.13;3.50;;;;;;;20.72;52.70;100739.38;4997828;28;20040;-88
2022/08/12 02:49:34;;;;;;;5.15;3.75;;;;;;;20.67;52.83;100741.91;5013167;28;20095;-88
2022/08/12 02:52:04;;;;;;;5.20;3.70;;;;;;;20.70;52.88;100737.88;4994975;28;20052;-88
2022/08/12 02:54:31;;;;;;;8.27;3.70;;;;;;;20.74;53.21;100739.94;5018761;28;20042;-88
2022/08/12 02:56:57;;;;;;;4.40;3.70;;;;;;;20.67;53.17;100733.72;5011776;28;20089;-89
2022/08/12 02:59:26;;;;;;;6.00;3.60;;;;;;;20.51;52.90;100723.34;5000076;28;20090;-88
2022/08/12 03:02:03;;;;;;;5.57;3.60;;;;;;;20.68;53.24;100742.78;4985371;28;20038;-88
2022/08/12 03:04:35;;;;;;;6.60;3.30;;;;;;;20.65;53.32;100753.09;5013985;28;20061;-88
2022/08/12 03:07:31;;;;;;;6.38;3.80;;;;;;;20.70;53.40;100755.13;5012162;28;20102;-88
2022/08/12 03:10:04;;;;;;;5.60;3.78;;;;;;;20.64;53.72;100756.84;5032816;28;20499;-87
2022/08/12 03:12:36;;;;;;;5.30;3.60;;;;;;;20.58;53.71;100754.19;5031072;28;20036;-87
2022/08/12 03:15:04;;;;;;;5.32;3.88;;;;;;;20.66;53.25;100759.38;5035631;28;20041;-87
2022/08/12 03:18:14;;;;;;;5.85;3.42;;;;;;;20.60;54.26;100761.13;5047565;28;20032;-88
2022/08/12 03:20:40;;;;;;;6.95;3.70;;;;;;;20.53;54.43;100743.06;4976110;28;20106;-87
2022/08/12 03:23:12;;;;;;;9.93;4.20;;;;;;;20.72;54.35;100769.41;5022031;28;20037;-89
2022/08/12 03:25:39;;;;;;;16.77;4.53;;;;;;;20.51;54.50;100746.03;5044668;28;20544;-88
2022/08/12 03:28:49;;;;;;;6.28;3.75;;;;;;;20.49;54.63;100753.63;5039575;28;20162;-89
2022/08/12 03:31:09;;;;;;;9.05;4.38;;;;;;;20.34;55.29;100732.09;5044949;28;20063;-89
2022/08/12 03:33:43;;;;;;;5.18;4.55;;;;;;;20.56;55.26;100748.13;5049735;28;20047;-88
2022/08/12 03:36:10;;;;;;;6.97;4.10;;;;;;;20.65;55.44;100755.81;5066059;28;20107;-88
2022/08/12 03:38:42;;;;;;;5.43;4.40;;;;;;;20.59;55.52;100743.03;5064892;28;20036;-88
2022/08/12 04:01:04;;;;;;;7.47;5.03;;;;;;;20.66;56.77;100748.44;5044884;28;20070;-89
2022/08/12 04:06:15;;;;;;;12.83;6.07;;;;;;;20.76;56.65;100754.22;5052075;28;20028;-88
2022/08/12 04:08:41;;;;;;;7.78;5.20;;;;;;;20.75;56.59;100735.34;5056679;28;20045;-90
2022/08/12 04:13:51;;;;;;;8.90;6.38;;;;;;;20.92;56.82;100754.69;5065716;28;20042;-89
2022/08/12 04:16:20;;;;;;;9.85;5.93;;;;;;;20.98;56.75;100757.34;5056809;28;20542;-90
2022/08/12 04:18:47;;;;;;;16.98;5.68;;;;;;;21.01;56.60;100761.53;5044619;28;20044;-90
2022/08/12 04:21:18;;;;;;;8.57;5.28;;;;;;;20.92;57.28;100765.63;5048386;28;20412;-89
2022/08/12 04:23:48;;;;;;;8.55;6.07;;;;;;;21.11;56.80;100759.09;5038839;28;20028;-89
2022/08/12 04:26:18;;;;;;;9.00;6.15;;;;;;;21.18;56.48;100750.81;5054357;28;20420;-90
2022/08/12 04:28:45;;;;;;;8.38;5.78;;;;;;;21.28;56.29;100767.50;5051723;28;20169;-90
2022/08/12 04:31:17;;;;;;;7.82;6.10;;;;;;;21.17;56.40;100762.84;5043205;28;20094;-87
2022/08/12 04:33:46;;;;;;;6.70;5.90;;;;;;;21.07;56.63;100764.19;5052136;28;20029;-88
2022/08/12 04:36:13;;;;;;;9.55;6.30;;;;;;;21.28;56.23;100762.91;5052876;28;20083;-88
2022/08/12 04:38:39;;;;;;;13.95;7.20;;;;;;;21.17;56.40;100765.56;5056389;28;20495;-87
2022/08/12 04:41:05;;;;;;;6.90;5.70;;;;;;;21.35;55.99;100773.72;5042066;28;20083;-89
2022/08/12 04:43:34;;;;;;;10.55;6.55;;;;;;;21.28;56.17;100760.16;5058579;28;20481;-89
2022/08/12 04:46:01;;;;;;;9.48;7.35;;;;;;;21.22;56.31;100773.91;5020189;28;20040;-88
2022/08/12 04:48:28;;;;;;;11.32;7.70;;;;;;;21.35;56.26;100762.78;5064968;28;20032;-89
2022/08/12 04:50:56;;;;;;;11.68;7.30;;;;;;;21.45;56.30;100773.25;5058716;28;20021;-91
2022/08/12 04:53:29;;;;;;;12.48;6.28;;;;;;;21.59;55.43;100747.38;5053407;28;20115;-92
2022/08/12 04:55:56;;;;;;;9.43;6.50;;;;;;;22.16;54.50;100773.50;5064611;28;20020;-89
2022/08/12 04:58:22;;;;;;;7.80;5.90;;;;;;;22.31;53.21;100750.09;5062877;28;20025;-89
2022/08/12 05:00:48;;;;;;;10.70;5.82;;;;;;;22.59;52.59;100762.22;5029840;28;20038;-88
2022/08/12 05:03:16;;;;;;;9.32;6.10;;;;;;;22.85;52.16;100771.91;5050466;28;20413;-87
2022/08/12 05:05:45;;;;;;;14.48;6.05;;;;;;;23.03;51.55;100750.91;5036628;28;20028;-89
2022/08/12 05:08:18;;;;;;;13.57;6.10;;;;;;;23.41;50.74;100760.47;5054319;28;20031;-84
2022/08/12 05:10:47;;;;;;;8.85;5.85;;;;;;;23.82;49.56;100769.53;5061471;28;20035;-88
2022/08/12 05:13:18;;;;;;;9.07;6.35;;;;;;;23.83;49.51;100760.22;5048038;28;20081;-89
2022/08/12 05:15:48;;;;;;;10.45;6.32;;;;;;;24.06;48.93;100756.50;5013173;28;20452;-91
2022/08/12 05:18:17;;;;;;;8.07;6.10;;;;;;;24.19;48.97;100759.75;5042266;28;20052;-90
2022/08/12 05:20:53;;;;;;;12.77;5.93;;;;;;;24.44;48.04;100784.09;5043051;28;21133;-91
2022/08/12 05:23:54;;;;;;;9.98;5.97;;;;;;;24.59;47.71;100788.19;5056184;28;20029;-91
2022/08/12 05:26:25;;;;;;;10.45;6.28;;;;;;;24.89;47.56;100784.22;5046614;28;20103;-89
2022/08/12 05:28:54;;;;;;;8.35;6.00;;;;;;;25.14;46.17;100753.47;5062593;28;20108;-93
2022/08/12 05:31:23;;;;;;;8.40;5.90;;;;;;;25.32;46.22;100749.63;5053763;28;20159;-84
2022/08/12 05:33:53;;;;;;;9.60;5.75;;;;;;;25.52;45.98;100749.00;5039660;28;20064;-86
2022/08/12 05:36:21;;;;;;;16.45;6.25;;;;;;;25.74;45.65;100747.06;5066446;28;20032;-90
2022/08/12 05:38:58;;;;;;;10.80;6.80;;;;;;;26.11;45.87;100769.19;5028489;28;20108;-86
2022/08/12 05:41:31;;;;;;;10.75;5.80;;;;;;;26.15;44.65;100743.88;5065268;28;20021;-86
2022/08/12 05:44:11;;;;;;;10.82;6.38;;;;;;;26.23;45.04;100749.72;5040969;28;20067;-89
2022/08/12 05:46:45;;;;;;;9.93;6.63;;;;;;;26.51;44.67;100753.25;5060189;28;20024;-92
2022/08/12 05:49:11;;;;;;;15.98;7.43;;;;;;;26.76;44.65;100751.78;5031605;28;20037;-92
2022/08/12 05:51:38;;;;;;;13.30;7.47;;;;;;;26.50;44.87;100735.03;5026431;28;20049;-90
2022/08/12 05:54:13;;;;;;;12.18;7.55;;;;;;;26.86;44.31;100743.59;5009635;28;20077;-90
2022/08/12 05:56:43;;;;;;;7.50;6.78;;;;;;;27.09;44.13;100748.66;5023713;28;20026;-90
2022/08/12 05:59:14;;;;;;;11.55;7.38;;;;;;;27.31;43.34;100731.09;5040200;28;20048;-92
2022/08/12 06:01:44;;;;;;;9.70;7.53;;;;;;;27.33;43.68;100745.47;5028600;28;20037;-91
2022/08/12 06:04:15;;;;;;;9.27;7.78;;;;;;;27.39;43.44;100749.88;5008863;28;20068;-88
2022/08/12 06:06:50;;;;;;;9.88;7.43;;;;;;;27.62;43.13;100742.22;5019828;28;20091;-90
2022/08/12 06:09:36;;;;;;;15.67;7.47;;;;;;;27.70;42.80;100744.47;5021147;28;20053;-89
2022/08/12 06:12:06;;;;;;;8.90;7.35;;;;;;;28.04;42.11;100749.50;5035109;28;20133;-92
2022/08/12 06:14:54;;;;;;;13.27;7.72;;;;;;;27.98;42.32;100751.44;5022069;28;20037;-88
2022/08/12 06:17:32;;;;;;;10.90;7.55;;;;;;;28.10;42.32;100753.94;5032200;28;20037;-88
2022/08/12 06:20:01;;;;;;;11.00;7.80;;;;;;;28.29;41.85;100746.75;5014802;28;20052;-87
2022/08/12 06:22:30;;;;;;;14.60;8.40;;;;;;;28.60;41.53;100766.91;5060712;28;20049;-91
2022/08/12 06:24:59;;;;;;;10.38;7.38;;;;;;;28.75;40.80;100759.69;5041346;28;20349;-90
2022/08/12 06:27:37;;;;;;;11.25;7.30;;;;;;;28.76;40.60;100766.91;5039831;28;20397;-92
2022/08/12 06:30:09;;;;;;;12.40;7.57;;;;;;;28.74;41.04;100752.53;5065626;28;20037;-92
2022/08/12 06:32:36;;;;;;;11.95;8.52;;;;;;;28.95;40.77;100745.00;5035828;28;20470;-90
2022/08/12 06:35:04;;;;;;;9.32;7.70;;;;;;;29.27;39.57;100738.22;5022815;28;20029;-90
2022/08/12 06:37:31;;;;;;;9.70;8.32;;;;;;;29.15;40.31;100735.78;5042722;28;20037;-91
2022/08/12 06:39:56;;;;;;;10.82;8.30;;;;;;;29.30;40.19;100752.34;5029672;28;20040;-88
2022/08/12 06:42:47;;;;;;;9.90;7.88;;;;;;;29.39;39.59;100747.06;5039643;28;20026;-90
2022/08/12 06:45:46;;;;;;;17.55;8.43;;;;;;;29.90;39.53;100757.84;5061301;28;20489;-90
2022/08/12 06:48:11;;;;;;;17.40;8.98;;;;;;;30.26;38.57;100749.28;5047037;28;20086;-87
2022/08/12 06:50:38;;;;;;;13.35;8.13;;;;;;;30.26;38.01;100738.19;5031298;28;20037;-87
2022/08/12 06:53:04;;;;;;;10.60;8.00;;;;;;;30.22;38.35;100754.53;5028671;28;20540;-90
2022/08/12 06:55:35;;;;;;;9.18;8.05;;;;;;;30.63;36.82;100753.38;5049947;28;20061;-86
2022/08/12 06:58:02;;;;;;;11.85;8.18;;;;;;;30.85;37.04;100756.47;5034546;28;20050;-89
2022/08/12 07:00:29;;;;;;;13.70;8.05;;;;;;;31.10;36.28;100754.53;5041445;28;20047;-87
2022/08/12 07:02:57;;;;;;;13.25;8.00;;;;;;;31.31;36.16;100758.69;5033778;28;20037;-88
2022/08/12 07:05:46;;;;;;;9.18;7.82;;;;;;;31.58;35.18;100757.25;5044897;28;20412;-86
2022/08/12 07:08:15;;;;;;;9.13;8.02;;;;;;;31.63;34.89;100732.19;5050285;28;20048;-89
2022/08/12 07:10:58;;;;;;;10.80;7.60;;;;;;;31.79;34.53;100751.41;5033392;28;20036;-87
2022/08/12 07:13:45;;;;;;;8.82;7.93;;;;;;;31.72;34.52;100740.66;5057497;28;20039;-91
2022/08/12 07:16:25;;;;;;;14.18;8.20;;;;;;;31.87;34.66;100734.03;5053748;28;20119;-87
2022/08/12 07:18:55;;;;;;;8.63;7.18;;;;;;;32.08;34.09;100754.84;5041599;28;20043;-92
2022/08/12 07:21:21;;;;;;;9.80;7.22;;;;;;;32.04;33.64;100731.56;5040346;28;20048;-93
2022/08/12 07:23:50;;;;;;;11.70;8.13;;;;;;;32.01;34.01;100737.72;5071380;28;20043;-92
2022/08/12 07:26:24;;;;;;;10.38;7.65;;;;;;;32.25;33.30;100731.22;5058505;28;20032;-89
2022/08/12 07:28:51;;;;;;;;;;;;;;;32.41;33.25;100763.19;5055881;28;20109;-89
2022/08/12 07:31:31;;;;;;;12.13;7.63;;;;;;;32.72;32.55;100757.09;5062709;28;20019;-92
2022/08/12 07:33:58;;;;;;;9.07;7.40;;;;;;;32.64;32.54;100732.75;5070953;28;20048;-91
2022/08/12 07:36:26;;;;;;;12.98;8.35;;;;;;;32.95;32.19;100738.56;5068017;28;20036;-93
2022/08/12 07:38:56;;;;;;;9.43;7.40;;;;;;;33.20;32.01;100768.69;5074873;28;20060;-91
2022/08/12 07:41:29;;;;;;;9.98;7.75;;;;;;;33.20;31.69;100756.69;5051733;28;20067;-93
2022/08/12 07:44:25;;;;;;;8.85;7.63;;;;;;;33.28;31.55;100763.53;5056407;28;20044;-94
2022/08/12 07:46:52;;;;;;;13.40;7.85;;;;;;;33.64;31.36;100755.22;5059404;28;20033;-94
2022/08/12 07:49:33;;;;;;;13.48;8.02;;;;;;;33.77;30.85;100732.03;5050338;28;20052;-94
2022/08/12 07:52:02;;;;;;;9.02;7.40;;;;;;;34.14;30.32;100737.56;5035501;28;20403;-92
2022/08/12 07:54:30;;;;;;;9.30;7.85;;;;;;;34.16;30.04;100727.78;5079755;28;20488;-94
2022/08/12 08:00:44;;;;;;;8.55;7.35;;;;;;;34.41;29.53;100728.22;4965501;28;20097;-94
2022/08/12 08:06:30;;;;;;;12.25;7.78;;;;;;;35.08;28.58;100736.41;5031715;28;20056;-90
2022/08/12 08:09:20;;;;;;;10.98;8.45;;;;;;;35.65;27.65;100759.91;5038611;28;20079;-95
2022/08/12 08:14:40;;;;;;;12.93;7.75;;;;;;;36.05;27.25;100760.56;5010644;28;20060;-87
2022/08/12 08:17:09;;;;;;;10.55;7.60;;;;;;;36.14;26.75;100730.63;5039718;28;20044;-88
2022/08/12 08:19:34;;;;;;;15.43;7.70;;;;;;;36.49;25.86;100749.31;5044695;28;20493;-89
2022/08/12 08:22:00;;;;;;;10.77;7.97;;;;;;;37.20;25.47;100754.31;5039457;28;20082;-89
2022/08/12 08:24:27;;;;;;;11.13;7.72;;;;;;;37.39;25.14;100737.03;5043134;28;20060;-88
2022/08/12 08:26:57;;;;;;;9.90;7.85;;;;;;;37.91;24.73;100736.66;5052234;28;20131;-89
2022/08/12 08:29:23;;;;;;;9.73;7.90;;;;;;;38.43;23.43;100733.31;5044811;28;20447;-89
2022/08/12 08:31:53;;;;;;;11.18;7.50;;;;;;;38.10;23.79;100738.97;5042458;28;20056;-89
2022/08/12 08:34:25;;;;;;;9.32;7.57;;;;;;;38.42;23.21;100740.13;5026651;28;20062;-89
2022/08/12 08:36:50;;;;;;;10.68;7.75;;;;;;;37.93;24.31;100741.91;5041824;28;20037;-89
2022/08/12 08:39:26;;;;;;;9.18;7.63;;;;;;;37.95;24.21;100748.00;5027157;28;20056;-90
2022/08/12 08:44:43;;;;;;;11.65;8.30;;;;;;;36.90;25.13;100742.25;5045688;28;20052;-88
2022/08/12 08:47:12;;;;;;;10.98;8.13;;;;;;;36.79;25.49;100739.00;5042654;28;20022;-87
2022/08/12 08:49:44;;;;;;;9.98;7.90;;;;;;;35.81;27.56;100735.91;5060050;28;20112;-90
2022/08/12 08:52:14;;;;;;;9.68;7.95;;;;;;;36.30;26.95;100735.69;5049165;28;20052;-86
2022/08/12 08:54:41;;;;;;;12.10;8.35;;;;;;;36.49;26.06;100738.13;5039251;28;20037;-86
2022/08/12 08:57:12;;;;;;;10.30;7.78;;;;;;;35.64;26.92;100736.72;5023715;28;20722;-86
2022/08/12 08:59:39;;;;;;;9.32;8.27;;;;;;;35.25;28.25;100741.25;5040133;28;20037;-87
2022/08/12 09:02:05;;;;;;;11.80;8.48;;;;;;;35.46;27.40;100735.84;5031975;28;20136;-86
2022/08/12 09:04:31;;;;;;;10.52;9.43;;;;;;;35.65;27.98;100743.97;5039912;28;20124;-86
2022/08/12 09:06:57;;;;;;;9.85;8.48;;;;;;;36.78;27.15;100736.53;5022144;28;20087;-91
2022/08/12 09:09:23;;;;;;;10.52;8.52;;;;;;;37.35;25.60;100733.28;5044665;28;20069;-88
2022/08/12 09:14:32;;;;;;;;;;;;;;;38.75;25.08;100725.19;5041484;28;20040;-84
2022/08/12 09:17:01;;;;;;;13.33;9.90;;;;;;;39.30;24.21;100716.50;5014992;28;19913;-85
2022/08/12 09:19:28;;;;;;;23.42;15.18;;;;;;;40.46;23.28;100711.84;5028373;28;20664;-85
2022/08/12 09:21:53;;;;;;;11.73;9.98;;;;;;;40.80;23.07;100708.66;5002632;28;20122;-87
2022/08/12 09:24:20;;;;;;;12.25;9.80;;;;;;;41.41;22.40;100708.06;5018573;28;20033;-89
2022/08/12 09:26:48;;;;;;;28.27;21.00;;;;;;;42.59;20.92;100704.78;5022976;28;20179;-85
2022/08/12 09:29:17;;;;;;;9.95;8.35;;;;;;;43.17;19.91;100702.81;5039276;28;20039;-90
2022/08/12 09:31:44;;;;;;;16.88;11.50;;;;;;;43.51;20.17;100705.75;5038769;28;20041;-90
2022/08/12 09:34:14;;;;;;;18.95;12.70;;;;;;;43.92;19.53;100706.66;5034725;28;20513;-90
2022/08/12 09:36:44;;;;;;;13.48;8.85;;;;;;;44.33;19.30;100705.88;5023393;28;20124;-89
2022/08/12 09:39:13;;;;;;;12.05;8.85;;;;;;;43.93;19.53;100690.50;5032505;28;20044;-88
2022/08/12 09:45:19;;;;;;;10.07;7.97;;;;;;;43.90;19.10;100688.41;5066197;28;20103;-90
2022/08/12 09:47:27;;;;;;;13.70;8.02;;;;;;;45.27;18.13;100669.31;5054138;28;20071;-92
2022/08/12 09:49:54;;;;;;;12.77;8.38;;;;;;;45.84;17.79;100685.75;5028444;28;20191;-90
2022/08/12 09:52:22;;;;;;;11.65;8.40;;;;;;;45.26;18.09;100679.06;5036933;28;20071;-93
2022/08/12 09:55:11;;;;;;;10.52;8.27;;;;;;;44.49;18.98;100686.63;5040082;28;20417;-93
2022/08/12 09:57:40;;;;;;;10.35;8.05;;;;;;;42.20;20.88;100670.16;5053749;28;20033;-92
2022/08/12 10:00:11;;;;;;;28.90;9.52;;;;;;;41.42;22.07;100675.03;5010958;28;20033;-93
2022/08/12 10:02:37;;;;;;;12.95;8.55;;;;;;;42.86;20.12;100675.72;5034959;28;20025;-91
2022/08/12 10:05:08;;;;;;;12.32;9.15;;;;;;;43.17;19.28;100658.38;5051081;28;20091;-90
2022/08/12 10:07:40;;;;;;;9.77;7.65;;;;;;;43.76;19.21;100649.44;5033432;28;20037;-90
2022/08/12 10:10:08;;;;;;;9.82;8.57;;;;;;;43.87;18.95;100663.72;5026176;28;20056;-92
2022/08/12 10:15:32;;;;;;;14.10;8.38;;;;;;;43.44;19.75;100646.25;5046457;28;20044;-92
2022/08/12 10:18:04;;;;;;;13.95;7.70;;;;;;;43.01;20.16;100649.28;5019578;28;20406;-92
2022/08/12 10:20:31;;;;;;;8.93;7.72;;;;;;;42.73;20.59;100638.34;5027635;28;20045;-91
2022/08/12 10:23:00;;;;;;;9.82;8.10;;;;;;;40.19;23.16;100654.38;5051909;28;20041;-91
2022/08/12 10:31:08;;;;;;;11.68;7.90;;;;;;;40.99;22.32;100643.06;5047107;28;20044;-91
2022/08/12 10:33:45;;;;;;;12.13;8.68;;;;;;;41.30;21.66;100636.50;5042541;28;20069;-93
2022/08/12 10:36:15;;;;;;;9.98;8.18;;;;;;;41.36;22.30;100659.63;5031643;28;20036;-94
2022/08/12 10:38:42;;;;;;;12.10;8.60;;;;;;;41.38;22.19;100643.13;5028896;28;20052;-93
2022/08/12 10:43:54;;;;;;;10.77;8.57;;;;;;;41.04;22.54;100654.84;5038353;28;20099;-91
2022/08/12 10:46:20;;;;;;;9.57;8.52;;;;;;;41.27;22.54;100649.34;5032766;28;20048;-92
2022/08/12 10:48:52;;;;;;;10.02;8.23;;;;;;;40.80;22.68;100636.22;5036266;28;20048;-91
2022/08/12 10:51:22;;;;;;;10.88;8.40;;;;;;;39.92;23.53;100622.28;5022317;28;20348;-92
2022/08/12 10:53:49;;;;;;;11.80;8.65;;;;;;;39.47;24.53;100648.75;5046961;28;20114;-88
2022/08/12 10:56:18;;;;;;;13.45;8.63;;;;;;;40.65;22.98;100634.22;5016653;28;20045;-87
2022/08/12 10:58:44;;;;;;;15.18;8.52;;;;;;;40.02;23.49;100630.22;5026414;28;20110;-85
2022/08/12 11:01:17;;;;;;;9.25;8.27;;;;;;;38.90;25.21;100645.00;5041772;28;20032;-84
2022/08/12 11:03:42;;;;;;;12.23;8.85;;;;;;;38.35;26.04;100633.19;5027720;28;20064;-85
2022/08/12 11:06:10;;;;;;;14.80;8.80;;;;;;;38.20;26.38;100614.22;5037116;28;20033;-83
2022/08/12 11:08:38;;;;;;;13.50;9.07;;;;;;;39.06;25.03;100639.50;5023228;28;20102;-81
2022/08/12 11:11:07;;;;;;;15.77;9.35;;;;;;;39.21;25.71;100626.69;5031159;28;20437;-82
2022/08/12 11:13:35;;;;;;;11.75;8.50;;;;;;;39.55;25.56;100622.47;5040035;28;20029;-90
2022/08/12 11:16:06;;;;;;;14.75;8.80;;;;;;;38.77;25.67;100630.13;4992694;28;20037;-86
2022/08/12 11:18:36;;;;;;;10.27;8.30;;;;;;;38.61;25.60;100617.97;5040522;28;20099;-82
2022/08/12 11:21:03;;;;;;;17.33;8.40;;;;;;;37.34;26.93;100623.13;5031840;28;20094;-82
2022/08/12 11:23:28;;;;;;;13.80;8.60;;;;;;;36.51;29.03;100635.03;5032583;28;20036;-85
2022/08/12 11:25:54;;;;;;;11.65;8.50;;;;;;;35.57;30.61;100624.56;5041219;28;20045;-87
2022/08/12 11:28:19;;;;;;;11.05;8.35;;;;;;;34.62;31.96;100611.28;5031318;28;20052;-87
2022/08/12 11:30:46;;;;;;;11.45;8.73;;;;;;;33.51;34.31;100630.66;5046284;28;20045;-90
2022/08/12 11:33:14;;;;;;;10.98;8.65;;;;;;;33.07;36.79;100629.44;5032509;28;20050;-88
2022/08/12 11:35:42;;;;;;;12.30;8.73;;;;;;;33.31;37.04;100607.69;5020747;28;20471;-87
2022/08/12 11:38:09;;;;;;;10.90;8.82;;;;;;;33.91;35.81;100616.84;5024948;28;20036;-88
2022/08/12 11:40:35;;;;;;;10.50;9.18;;;;;;;33.47;36.30;100615.69;5021900;28;20429;-87
2022/08/12 11:43:01;;;;;;;14.00;9.23;;;;;;;33.96;35.38;100617.53;5024233;28;20041;-84
2022/08/12 11:45:28;;;;;;;11.13;9.00;;;;;;;34.28;34.45;100625.91;4998875;28;20040;-86
2022/08/12 11:47:59;;;;;;;9.15;8.25;;;;;;;34.17;34.56;100601.09;5003405;28;20102;-93
2022/08/12 11:50:26;;;;;;;13.98;9.20;;;;;;;33.14;36.98;100635.41;5008241;28;20508;-83
2022/08/12 11:52:51;;;;;;;12.25;8.55;;;;;;;32.19;38.93;100652.59;5014825;28;20040;-83
2022/08/12 11:55:19;;;;;;;10.25;8.82;;;;;;;31.43;39.90;100649.13;5031755;28;20037;-83
2022/08/12 11:57:48;;;;;;;12.75;9.35;;;;;;;30.73;41.95;100649.75;5030393;28;20053;-84
2022/08/12 12:00:14;;;;;;;12.10;9.38;;;;;;;30.88;41.94;100632.94;5047924;28;20504;-83
2022/08/12 12:02:39;;;;;;;17.38;9.85;;;;;;;30.74;42.73;100643.91;5036152;28;20120;-83
2022/08/12 12:05:05;;;;;;;12.93;9.25;;;;;;;30.81;42.63;100654.66;5014205;28;20041;-82
2022/08/12 12:07:31;;;;;;;14.50;9.57;;;;;;;31.15;41.99;100645.34;5038412;28;20029;-82
2022/08/12 12:09:57;;;;;;;13.05;9.85;;;;;;;31.18;42.98;100651.13;5050964;28;20487;-83
2022/08/12 12:12:23;;;;;;;13.90;9.70;;;;;;;30.65;44.82;100651.25;5048667;28;20033;-82
2022/08/12 12:14:49;;;;;;;13.05;9.93;;;;;;;30.80;44.37;100653.81;5010298;28;20052;-85
2022/08/12 12:17:16;;;;;;;12.70;9.98;;;;;;;30.34;45.83;100645.22;5031802;28;20406;-84
2022/08/12 12:19:43;;;;;;;13.13;9.82;;;;;;;30.43;45.47;100655.34;5011764;28;20047;-84
2022/08/12 12:22:09;;;;;;;13.02;9.95;;;;;;;30.04;45.95;100653.53;5032764;28;20025;-84
2022/08/12 12:24:36;;;;;;;11.23;9.65;;;;;;;30.20;45.69;100645.84;5043278;28;20064;-85
2022/08/12 12:27:03;;;;;;;13.05;10.02;;;;;;;29.90;46.67;100657.25;5033583;28;20555;-83
2022/08/12 12:29:31;;;;;;;11.73;9.77;;;;;;;29.74;47.18;100637.19;5031696;28;20029;-83
2022/08/12 12:31:57;;;;;;;20.75;10.15;;;;;;;30.05;45.92;100649.63;5032565;28;20433;-84
2022/08/12 12:34:24;;;;;;;14.13;10.40;;;;;;;29.87;46.22;100644.78;5026510;28;20132;-83
2022/08/12 12:36:50;;;;;;;11.30;9.80;;;;;;;29.33;46.90;100649.31;5028283;28;20453;-83
2022/08/12 12:39:18;;;;;;;11.38;9.40;;;;;;;29.32;47.24;100641.31;5043452;28;20037;-82
2022/08/12 12:41:44;;;;;;;15.02;10.20;;;;;;;29.11;47.31;100646.97;5040840;28;20037;-86
2022/08/12 12:44:12;;;;;;;13.65;10.60;;;;;;;29.22;47.17;100636.66;5012027;28;20048;-84
2022/08/12 12:46:38;;;;;;;13.38;9.65;;;;;;;29.22;47.72;100631.97;5041730;28;20053;-83
2022/08/12 12:49:03;;;;;;;16.13;10.13;;;;;;;29.52;47.30;100630.09;5014622;28;20570;-83
2022/08/12 12:51:31;;;;;;;17.85;10.30;;;;;;;29.83;46.11;100644.56;5034070;28;20109;-83
2022/08/12 12:53:57;;;;;;;13.55;10.02;;;;;;;29.83;46.69;100635.44;5037402;28;20033;-84
2022/08/12 12:56:27;;;;;;;14.60;10.35;;;;;;;29.89;46.71;100623.16;5015941;28;20417;-83
2022/08/12 12:58:53;;;;;;;14.43;10.50;;;;;;;29.72;47.08;100639.41;5040667;28;20124;-84
2022/08/12 13:01:24;;;;;;;17.58;10.60;;;;;;;29.34;48.26;100630.81;5032378;28;20051;-85
2022/08/12 13:03:55;;;;;;;11.13;10.00;;;;;;;29.27;48.58;100635.78;5031226;28;20124;-85
2022/08/12 13:06:24;;;;;;;15.32;10.40;;;;;;;29.39;48.17;100639.06;5029829;28;20037;-85
2022/08/12 13:09:12;;;;;;;14.73;10.52;;;;;;;29.19;49.27;100632.53;5025229;28;20077;-93
2022/08/12 13:11:51;;;;;;;12.82;10.35;;;;;;;29.07;49.77;100623.75;5054758;28;20057;-90
2022/08/12 13:14:18;;;;;;;15.70;10.13;;;;;;;28.97;49.89;100619.06;5048298;28;20040;-90
2022/08/12 13:16:46;;;;;;;15.65;10.68;;;;;;;28.22;51.68;100613.53;5024067;28;20128;-91
2022/08/12 13:19:15;;;;;;;16.67;10.80;;;;;;;28.29;51.61;100614.06;5032779;28;20044;-91
2022/08/12 13:22:16;;;;;;;11.60;10.40;;;;;;;28.18;51.16;100618.78;5033869;28;20115;-89
2022/08/12 13:24:28;;;;;;;13.13;11.02;;;;;;;27.87;52.36;100618.00;5027897;28;20120;-91
2022/08/12 13:26:56;;;;;;;12.85;10.82;;;;;;;27.92;52.14;100617.16;5034311;28;20048;-89
2022/08/12 13:29:21;;;;;;;14.98;10.40;;;;;;;27.65;53.01;100614.66;5004411;28;20037;-91
2022/08/12 13:31:49;;;;;;;14.65;10.73;;;;;;;27.98;52.43;100619.66;5035631;28;20159;-87
2022/08/12 13:34:16;;;;;;;14.10;10.30;;;;;;;27.89;52.46;100614.97;5029925;28;20047;-87
2022/08/12 13:36:45;;;;;;;15.23;10.65;;;;;;;28.06;52.25;100620.19;5028786;28;20041;-87